createdAt,value
2022-10-22T00:00:16.318Z,27.000000
2022-10-22T00:05:19.378Z,27.666667
2022-10-22T00:10:22.070Z,28.066667
2022-10-22T00:15:24.869Z,28.571429
2022-10-22T00:20:28.059Z,28.800000
2022-10-22T00:25:32.074Z,29.933333
2022-10-22T00:30:32.566Z,30.333333
2022-10-22T00:35:17.627Z,30.066667
2022-10-22T00:40:17.894Z,30.266667
2022-10-22T00:45:20.148Z,30.933333
2022-10-22T00:50:22.546Z,31.571429
2022-10-22T00:55:25.786Z,32.466667
2022-10-22T01:00:29.611Z,32.000000
2022-10-22T01:05:31.913Z,32.666667
2022-10-22T01:10:33.979Z,32.666667
2022-10-22T01:15:16.561Z,33.000000
2022-10-22T01:20:19.119Z,32.533333
2022-10-22T01:25:21.900Z,33.000000
2022-10-22T01:30:24.129Z,32.500000
2022-10-22T01:35:28.215Z,32.533333
2022-10-22T01:40:29.908Z,32.866667
2022-10-22T01:45:33.175Z,33.266667
2022-10-22T01:50:35.638Z,34.666667
2022-10-22T01:55:18.304Z,34.733333
2022-10-22T02:00:21.936Z,34.600000
2022-10-22T02:05:24.144Z,35.214286
2022-10-22T02:10:26.105Z,34.933333
2022-10-22T02:15:28.067Z,35.000000
2022-10-22T02:20:30.427Z,35.666667
2022-10-22T02:25:33.821Z,35.866667
2022-10-22T02:30:35.593Z,35.133333
2022-10-22T02:35:17.738Z,34.400000
2022-10-22T02:40:20.373Z,34.933333
2022-10-22T02:45:23.278Z,34.142857
2022-10-22T02:50:25.668Z,34.000000
2022-10-22T02:55:29.244Z,33.866667
2022-10-22T03:00:30.366Z,34.200000
2022-10-22T03:05:33.989Z,34.466667
2022-10-22T03:10:35.080Z,34.600000
2022-10-22T03:15:17.650Z,35.133333
2022-10-22T03:20:20.145Z,34.933333
2022-10-22T03:25:23.388Z,35.000000
2022-10-22T03:30:24.882Z,34.933333
2022-10-22T03:35:27.469Z,34.600000
2022-10-22T03:40:30.962Z,35.000000
2022-10-22T03:45:33.641Z,35.000000
2022-10-22T03:50:15.967Z,35.000000
2022-10-22T03:55:19.282Z,35.733333
2022-10-22T04:00:21.849Z,36.666667
2022-10-22T04:05:25.671Z,33.642857
2022-10-22T04:10:27.210Z,32.133333
2022-10-22T04:15:30.076Z,31.266667
2022-10-22T04:20:32.647Z,30.733333
2022-10-22T04:25:35.340Z,31.800000
2022-10-22T04:30:18.709Z,32.000000
2022-10-22T04:35:21.080Z,31.666667
2022-10-22T04:40:23.354Z,32.000000
2022-10-22T04:45:25.324Z,32.600000
2022-10-22T04:50:28.962Z,32.266667
2022-10-22T04:55:36.842Z,32.400000
2022-10-22T05:00:32.329Z,32.933333
2022-10-22T05:05:35.566Z,33.000000
2022-10-22T05:10:16.613Z,32.933333
2022-10-22T05:15:18.856Z,33.466667
2022-10-22T05:20:21.228Z,33.266667
2022-10-22T05:25:23.375Z,33.285714
2022-10-22T05:30:25.628Z,34.733333
2022-10-22T05:35:28.441Z,38.066667
2022-10-22T05:40:31.489Z,39.200000
2022-10-22T05:45:33.721Z,42.266667
2022-10-22T05:50:35.819Z,42.600000
2022-10-22T05:55:18.670Z,40.333333
2022-10-22T06:00:20.976Z,39.933333
2022-10-22T06:05:23.664Z,39.071429
2022-10-22T06:10:25.578Z,38.600000
2022-10-22T06:15:27.675Z,37.733333
2022-10-22T06:20:29.853Z,37.600000
2022-10-22T06:25:32.001Z,38.333333
2022-10-22T06:30:34.119Z,38.333333
2022-10-22T06:35:17.856Z,37.333333
2022-10-22T06:40:19.115Z,36.666667
2022-10-22T06:45:21.657Z,38.533333
2022-10-22T06:50:24.861Z,39.571429
2022-10-22T06:55:26.882Z,39.733333
2022-10-22T07:00:29.841Z,41.000000
2022-10-22T07:05:33.326Z,40.866667
2022-10-22T07:10:34.192Z,40.866667
2022-10-22T07:15:16.373Z,39.800000
2022-10-22T07:20:19.944Z,39.533333
2022-10-22T07:25:22.312Z,39.285714
2022-10-22T07:30:24.737Z,38.933333
2022-10-22T07:35:28.312Z,38.266667
2022-10-22T07:40:29.804Z,35.266667
2022-10-22T07:45:33.422Z,35.133333
2022-10-22T07:50:36.948Z,34.400000
2022-10-22T07:55:17.821Z,33.666667
2022-10-22T08:00:23.099Z,33.266667
2022-10-22T08:05:22.093Z,32.733333
2022-10-22T08:10:24.965Z,33.571429
2022-10-22T08:15:27.330Z,34.666667
2022-10-22T08:20:30.048Z,34.800000
2022-10-22T08:25:32.249Z,35.533333
2022-10-22T08:30:16.116Z,35.666667
2022-10-22T08:35:17.841Z,35.800000
2022-10-22T08:40:21.411Z,36.266667
2022-10-22T08:45:23.196Z,35.214286
2022-10-22T08:50:25.575Z,35.400000
2022-10-22T08:55:28.204Z,34.933333
2022-10-22T09:00:30.535Z,35.133333
2022-10-22T09:05:32.540Z,35.933333
2022-10-22T09:10:36.107Z,35.266667
2022-10-22T09:15:17.172Z,34.800000
2022-10-22T09:20:19.430Z,34.666667
2022-10-22T09:25:22.190Z,34.285714
2022-10-22T09:30:24.488Z,34.000000
2022-10-22T09:35:28.348Z,34.000000
2022-10-22T09:40:31.798Z,33.933333
2022-10-22T09:45:34.201Z,34.266667
2022-10-22T09:50:16.338Z,35.066667
2022-10-22T09:55:19.609Z,36.200000
2022-10-22T10:00:21.293Z,39.600000
2022-10-22T10:05:24.791Z,38.500000
2022-10-22T10:10:27.156Z,38.866667
2022-10-22T10:15:28.913Z,38.933333
2022-10-22T10:20:31.414Z,38.000000
2022-10-22T10:25:33.817Z,37.600000
2022-10-22T10:30:35.998Z,36.933333
2022-10-22T10:35:18.069Z,37.000000
2022-10-22T10:40:20.771Z,38.200000
2022-10-22T10:45:23.109Z,38.785714
2022-10-22T10:50:25.743Z,39.666667
2022-10-22T10:55:29.564Z,39.000000
2022-10-22T11:00:31.471Z,39.800000
2022-10-22T11:05:33.885Z,40.066667
2022-10-22T11:10:16.062Z,39.400000
2022-10-22T11:15:18.379Z,39.533333
2022-10-22T11:20:20.708Z,38.266667
2022-10-22T11:25:23.019Z,38.928571
2022-10-22T11:30:25.769Z,39.800000
2022-10-22T11:35:28.722Z,39.733333
2022-10-22T11:40:30.752Z,40.000000
2022-10-22T11:45:32.903Z,36.800000
2022-10-22T11:50:35.828Z,35.533333
2022-10-22T11:55:17.738Z,35.666667
2022-10-22T12:00:20.446Z,35.800000
2022-10-22T12:05:23.033Z,35.500000
2022-10-22T12:10:25.440Z,36.333333
2022-10-22T12:15:27.438Z,36.200000
2022-10-22T12:20:29.848Z,35.200000
2022-10-22T12:25:35.601Z,36.200000
2022-10-22T12:30:36.345Z,39.066667
2022-10-22T12:35:17.713Z,38.666667
2022-10-22T12:40:20.225Z,38.600000
2022-10-22T12:45:23.773Z,37.642857
2022-10-22T12:50:25.230Z,36.000000
2022-10-22T12:55:29.631Z,37.066667
2022-10-22T13:00:37.684Z,39.111111
2022-10-22T13:05:19.879Z,36.266667
2022-10-22T13:10:21.517Z,36.000000
2022-10-22T13:15:23.970Z,35.071429
2022-10-22T13:20:26.949Z,36.866667
2022-10-22T13:25:29.332Z,34.133333
2022-10-22T13:30:32.583Z,33.000000
2022-10-22T13:35:33.869Z,30.533333
2022-10-22T13:40:15.941Z,30.400000
2022-10-22T13:45:18.584Z,30.733333
2022-10-22T13:50:20.926Z,32.866667
2022-10-22T13:55:23.635Z,32.857143
2022-10-22T14:00:26.913Z,35.200000
2022-10-22T14:05:29.008Z,36.266667
2022-10-22T14:10:31.626Z,36.200000
2022-10-22T14:15:34.300Z,37.800000
2022-10-22T14:20:16.458Z,37.133333
2022-10-22T14:25:19.961Z,39.000000
2022-10-22T14:30:22.077Z,40.666667
2022-10-22T14:35:27.140Z,44.000000
2022-10-22T14:40:27.940Z,44.333333
2022-10-22T14:45:31.036Z,44.266667
2022-10-22T14:50:33.744Z,44.533333
2022-10-22T14:55:35.115Z,44.600000
2022-10-22T15:00:18.961Z,46.933333
2022-10-22T15:05:20.973Z,48.066667
2022-10-22T15:10:24.127Z,45.785714
2022-10-22T15:15:31.639Z,46.000000
2022-10-22T15:20:29.990Z,46.066667
2022-10-22T15:25:32.921Z,47.733333
2022-10-22T15:30:35.522Z,47.666667
2022-10-22T15:35:20.131Z,48.800000
2022-10-22T15:40:20.836Z,50.333333
2022-10-22T15:45:24.279Z,50.500000
2022-10-22T15:50:25.719Z,50.000000
2022-10-22T15:55:29.243Z,51.400000
2022-10-22T16:00:32.321Z,51.800000
2022-10-22T16:05:34.753Z,53.533333
2022-10-22T16:10:17.042Z,52.733333
2022-10-22T16:15:19.753Z,51.933333
2022-10-22T16:20:22.956Z,52.214286
2022-10-22T16:25:25.167Z,53.933333
2022-10-22T16:30:28.319Z,56.933333
2022-10-22T16:35:30.567Z,58.600000
2022-10-22T16:40:32.816Z,58.200000
2022-10-22T16:45:35.425Z,60.466667
2022-10-22T16:50:18.362Z,59.066667
2022-10-22T16:55:22.664Z,61.066667
2022-10-22T17:00:24.195Z,65.928571
2022-10-22T17:05:26.841Z,67.000000
2022-10-22T17:10:30.855Z,66.266667
2022-10-22T17:15:32.073Z,64.666667
2022-10-22T17:20:34.409Z,67.000000
2022-10-22T17:25:16.554Z,68.600000
2022-10-22T17:30:23.260Z,69.400000
2022-10-22T17:35:21.799Z,70.266667
2022-10-22T17:40:24.461Z,70.071429
2022-10-22T17:45:26.729Z,69.933333
2022-10-22T17:50:28.774Z,68.533333
2022-10-22T17:55:31.115Z,67.733333
2022-10-22T18:00:33.720Z,67.133333
2022-10-22T18:05:37.104Z,66.200000
2022-10-22T18:10:18.020Z,64.866667
2022-10-22T18:15:20.516Z,64.000000
2022-10-22T18:20:22.658Z,62.428571
2022-10-22T18:25:25.141Z,60.933333
2022-10-22T18:30:27.396Z,59.533333
2022-10-22T18:35:29.709Z,58.466667
2022-10-22T18:40:32.129Z,57.600000
2022-10-22T18:45:34.469Z,57.000000
2022-10-22T18:50:16.593Z,56.400000
2022-10-22T18:55:19.069Z,55.866667
2022-10-22T19:00:21.162Z,55.466667
2022-10-22T19:05:23.984Z,55.071429
2022-10-22T19:10:26.304Z,54.333333
2022-10-22T19:15:34.534Z,53.666667
2022-10-22T19:20:31.025Z,53.133333
2022-10-22T19:25:33.430Z,52.533333
2022-10-22T19:30:36.677Z,52.000000
2022-10-22T19:35:18.100Z,52.133333
2022-10-22T19:40:20.620Z,52.000000
2022-10-22T19:45:23.390Z,52.000000
2022-10-22T19:50:27.322Z,52.133333
2022-10-22T19:55:28.618Z,53.000000
2022-10-22T20:00:31.200Z,52.466667
2022-10-22T20:05:34.135Z,52.733333
2022-10-22T20:10:18.923Z,52.933333
2022-10-22T20:15:19.224Z,52.800000
2022-10-22T20:20:26.291Z,53.333333
2022-10-22T20:25:24.553Z,60.857143
2022-10-22T20:30:27.574Z,68.066667
2022-10-22T20:35:29.629Z,75.933333
2022-10-22T20:40:32.244Z,86.133333
2022-10-22T20:45:35.224Z,87.866667
2022-10-22T20:50:17.446Z,86.666667
2022-10-22T20:55:19.960Z,85.333333
2022-10-22T21:00:22.432Z,84.500000
2022-10-22T21:05:26.159Z,83.666667
2022-10-22T21:10:32.398Z,83.866667
2022-10-22T21:15:31.566Z,84.600000
2022-10-22T21:20:34.017Z,86.266667
2022-10-22T21:25:16.654Z,87.666667
2022-10-22T21:30:19.381Z,88.800000
2022-10-22T21:35:23.313Z,90.142857
2022-10-22T21:40:26.439Z,91.133333
2022-10-22T21:45:27.951Z,92.000000
2022-10-22T21:50:31.500Z,92.400000
2022-10-22T21:55:33.122Z,93.000000
2022-10-22T22:00:16.541Z,93.400000
2022-10-22T22:05:19.961Z,94.000000
2022-10-22T22:10:22.901Z,94.000000
2022-10-22T22:15:24.192Z,94.000000
2022-10-22T22:20:26.932Z,94.000000
2022-10-22T22:25:29.083Z,94.000000
2022-10-22T22:30:32.351Z,94.000000
2022-10-22T22:35:34.871Z,94.000000
2022-10-22T22:40:17.934Z,94.000000
2022-10-22T22:45:21.656Z,94.066667
2022-10-22T22:50:23.852Z,94.142857
2022-10-22T22:55:28.890Z,94.000000
2022-10-22T23:00:30.866Z,94.000000
2022-10-22T23:05:32.863Z,93.733333
2022-10-22T23:10:36.135Z,93.400000
2022-10-22T23:15:17.480Z,94.000000
2022-10-22T23:20:22.108Z,94.000000
2022-10-22T23:25:23.282Z,94.000000
2022-10-22T23:30:26.641Z,94.000000
2022-10-22T23:35:28.311Z,94.000000
2022-10-22T23:40:30.749Z,94.000000
2022-10-22T23:45:33.477Z,94.266667
2022-10-22T23:50:16.770Z,95.000000
2022-10-22T23:55:20.033Z,95.000000
